KIYA

Abbeville Chris Crusta Memorial Airport

Abbeville, Louisiana, USA
METAR KIYA 201455Z AUTO 15013G21KT 10SM BKN023 24/23 A3013 RMK AO2 T02360226
Observed Flight Rules
Feb-20 @ 14:55 UTC (3 hours ago) Marginal Visual Flight Rules
Wind Visibility Clouds
150° at 13 knots
 Gusting to 21 knots
10 miles
  • Broken at 2,300' AGL
Temperatures Readings
Current 24°C / 75°F
Dewpoint 23°C / 73°F
Humidity 94%
Altimeter 30.13" Hg
Pressure 1020 hPa
Elevation 5
METAR KIYA 201455Z AUTO 15013G21KT 10SM BKN023 24/23 A3013 RMK AO2 T02360226
Observed Flight Rules
Feb-20 @ 14:55 UTC
(3 hours ago)
MVFR
Wind Visibility
150° at 13 knots
 Gusting to 21 knots
10 miles
Clouds
  • Broken at 2,300' AGL
Temperature Dewpoint
24°C / 75°F 23°C / 73°F
Humidity Altimeter Pressure
94% 30.13" Hg 1020 hPa